Grovetown, Georgia
Current Conditions -  °F | °C
As of 7:53 PM on Tuesday 21 Oct 2014 (Local Time) from KDNL Reporting Station
Clear Clear  
Wind Chill: 72°   Ceiling: Unl
Heat Index: 72°   Visibility: 10mi
Dew Point: 51°   Wind: 7mph
Humidity: 48%   Direction: 290°WNW
Pressure: 29.92"   Gusts: NA
Location:  33.45°N, 82.2°W
Report Text: KDNL 212353Z AUTO 29006KT 10SM CLR 22/11 A2992 RMK AO2 SLP129 T02220106 10261 20222 53011
Loading
Personal Weather Stations






























Interactive Weather Map
Tropical Storm Tracking
New forecast layout! Learn more

10-Day Weather Forecast

Advertisements
Track Severe Weather on mobile